sensor_id;sensor_type;location;lat;lon;timestamp;temperature;humidity
39045;DHT22;52192;52.002;5.956;2023-04-03T00:01:14;7.70;61.70
39045;DHT22;52192;52.002;5.956;2023-04-03T00:03:40;7.60;61.70
39045;DHT22;52192;52.002;5.956;2023-04-03T00:06:10;7.60;61.80
39045;DHT22;52192;52.002;5.956;2023-04-03T00:08:37;7.60;61.80
39045;DHT22;52192;52.002;5.956;2023-04-03T00:11:04;7.60;61.80
39045;DHT22;52192;52.002;5.956;2023-04-03T00:13:31;7.60;61.80
39045;DHT22;52192;52.002;5.956;2023-04-03T00:15:57;7.60;61.90
39045;DHT22;52192;52.002;5.956;2023-04-03T00:18:22;7.60;61.80
39045;DHT22;52192;52.002;5.956;2023-04-03T00:20:48;7.50;61.90
39045;DHT22;52192;52.002;5.956;2023-04-03T00:23:14;7.50;61.90
39045;DHT22;52192;52.002;5.956;2023-04-03T00:25:40;7.50;61.90
39045;DHT22;52192;52.002;5.956;2023-04-03T00:28:06;7.50;61.90
39045;DHT22;52192;52.002;5.956;2023-04-03T00:30:32;7.50;61.90
39045;DHT22;52192;52.002;5.956;2023-04-03T00:32:58;7.50;62.00
39045;DHT22;52192;52.002;5.956;2023-04-03T00:35:26;7.50;62.00
39045;DHT22;52192;52.002;5.956;2023-04-03T00:37:53;7.40;62.10
39045;DHT22;52192;52.002;5.956;2023-04-03T00:40:20;7.40;62.20
39045;DHT22;52192;52.002;5.956;2023-04-03T00:42:47;7.40;62.30
39045;DHT22;52192;52.002;5.956;2023-04-03T00:47:50;7.30;62.40
39045;DHT22;52192;52.002;5.956;2023-04-03T00:50:17;7.30;62.50
39045;DHT22;52192;52.002;5.956;2023-04-03T00:52:43;7.30;62.50
39045;DHT22;52192;52.002;5.956;2023-04-03T00:55:12;7.30;62.40
39045;DHT22;52192;52.002;5.956;2023-04-03T00:57:40;7.30;62.40
39045;DHT22;52192;52.002;5.956;2023-04-03T01:00:10;7.30;62.40
39045;DHT22;52192;52.002;5.956;2023-04-03T01:02:36;7.30;62.60
39045;DHT22;52192;52.002;5.956;2023-04-03T01:05:02;7.20;62.70
39045;DHT22;52192;52.002;5.956;2023-04-03T01:07:30;7.20;62.80
39045;DHT22;52192;52.002;5.956;2023-04-03T01:09:58;7.20;62.90
39045;DHT22;52192;52.002;5.956;2023-04-03T01:12:30;7.20;63.00
39045;DHT22;52192;52.002;5.956;2023-04-03T01:14:58;7.20;62.90
39045;DHT22;52192;52.002;5.956;2023-04-03T01:17:32;7.20;63.00
39045;DHT22;52192;52.002;5.956;2023-04-03T01:25:47;7.10;63.30
39045;DHT22;52192;52.002;5.956;2023-04-03T01:28:22;7.10;64.00
39045;DHT22;52192;52.002;5.956;2023-04-03T01:33:58;7.10;63.60
39045;DHT22;52192;52.002;5.956;2023-04-03T01:36:27;7.00;63.80
39045;DHT22;52192;52.002;5.956;2023-04-03T01:38:54;7.00;63.80
39045;DHT22;52192;52.002;5.956;2023-04-03T01:41:20;7.00;63.90
39045;DHT22;52192;52.002;5.956;2023-04-03T01:43:47;7.00;63.90
39045;DHT22;52192;52.002;5.956;2023-04-03T01:46:13;7.00;64.00
39045;DHT22;52192;52.002;5.956;2023-04-03T01:48:39;7.00;64.00
39045;DHT22;52192;52.002;5.956;2023-04-03T01:51:05;6.90;64.10
39045;DHT22;52192;52.002;5.956;2023-04-03T01:53:31;6.90;64.20
39045;DHT22;52192;52.002;5.956;2023-04-03T01:55:57;6.90;64.30
39045;DHT22;52192;52.002;5.956;2023-04-03T01:58:22;6.90;64.30
39045;DHT22;52192;52.002;5.956;2023-04-03T02:00:48;6.80;64.50
39045;DHT22;52192;52.002;5.956;2023-04-03T02:03:14;6.80;64.60
39045;DHT22;52192;52.002;5.956;2023-04-03T02:05:40;6.80;64.70
39045;DHT22;52192;52.002;5.956;2023-04-03T02:08:06;6.80;64.90
39045;DHT22;52192;52.002;5.956;2023-04-03T02:10:32;6.80;65.00
39045;DHT22;52192;52.002;5.956;2023-04-03T02:12:57;6.80;64.90
39045;DHT22;52192;52.002;5.956;2023-04-03T02:15:23;6.70;64.90
39045;DHT22;52192;52.002;5.956;2023-04-03T02:17:49;6.70;65.60
39045;DHT22;52192;52.002;5.956;2023-04-03T02:20:15;6.70;65.20
39045;DHT22;52192;52.002;5.956;2023-04-03T02:22:40;6.70;65.10
39045;DHT22;52192;52.002;5.956;2023-04-03T02:25:06;6.70;65.20
39045;DHT22;52192;52.002;5.956;2023-04-03T02:27:32;6.70;65.20
39045;DHT22;52192;52.002;5.956;2023-04-03T02:29:57;6.70;65.40
39045;DHT22;52192;52.002;5.956;2023-04-03T02:32:23;6.60;65.40
39045;DHT22;52192;52.002;5.956;2023-04-03T02:34:49;6.60;65.70
39045;DHT22;52192;52.002;5.956;2023-04-03T02:37:15;6.50;65.70
39045;DHT22;52192;52.002;5.956;2023-04-03T02:39:40;6.50;65.90
39045;DHT22;52192;52.002;5.956;2023-04-03T02:42:06;6.50;66.00
39045;DHT22;52192;52.002;5.956;2023-04-03T02:44:32;6.50;66.00
39045;DHT22;52192;52.002;5.956;2023-04-03T02:46:58;6.50;66.10
39045;DHT22;52192;52.002;5.956;2023-04-03T02:49:24;6.40;66.10
39045;DHT22;52192;52.002;5.956;2023-04-03T02:51:49;6.40;66.20
39045;DHT22;52192;52.002;5.956;2023-04-03T02:54:16;6.40;66.20
39045;DHT22;52192;52.002;5.956;2023-04-03T02:56:42;6.40;66.20
39045;DHT22;52192;52.002;5.956;2023-04-03T02:59:08;6.40;66.30
39045;DHT22;52192;52.002;5.956;2023-04-03T03:01:33;6.40;66.40
39045;DHT22;52192;52.002;5.956;2023-04-03T03:04:00;6.40;66.50
39045;DHT22;52192;52.002;5.956;2023-04-03T03:06:26;6.40;66.70
39045;DHT22;52192;52.002;5.956;2023-04-03T03:08:52;6.30;66.60
39045;DHT22;52192;52.002;5.956;2023-04-03T03:11:17;6.30;66.60
39045;DHT22;52192;52.002;5.956;2023-04-03T03:13:43;6.30;66.60
39045;DHT22;52192;52.002;5.956;2023-04-03T03:16:09;6.30;66.70
39045;DHT22;52192;52.002;5.956;2023-04-03T03:18:34;6.20;66.70
39045;DHT22;52192;52.002;5.956;2023-04-03T03:21:01;6.20;66.80
39045;DHT22;52192;52.002;5.956;2023-04-03T03:23:29;6.20;67.00
39045;DHT22;52192;52.002;5.956;2023-04-03T03:25:56;6.20;67.00
39045;DHT22;52192;52.002;5.956;2023-04-03T03:28:23;6.10;67.00
39045;DHT22;52192;52.002;5.956;2023-04-03T03:30:49;6.10;67.30
39045;DHT22;52192;52.002;5.956;2023-04-03T03:33:14;6.00;67.40
39045;DHT22;52192;52.002;5.956;2023-04-03T03:35:40;6.00;67.50
39045;DHT22;52192;52.002;5.956;2023-04-03T03:38:10;6.00;67.50
39045;DHT22;52192;52.002;5.956;2023-04-03T03:40:39;6.00;67.60
39045;DHT22;52192;52.002;5.956;2023-04-03T03:43:05;6.00;67.60
39045;DHT22;52192;52.002;5.956;2023-04-03T03:45:30;6.00;67.70
39045;DHT22;52192;52.002;5.956;2023-04-03T03:47:56;5.90;67.60
39045;DHT22;52192;52.002;5.956;2023-04-03T03:50:22;5.90;67.60
39045;DHT22;52192;52.002;5.956;2023-04-03T03:52:48;5.90;67.60
39045;DHT22;52192;52.002;5.956;2023-04-03T03:55:14;5.90;67.70
39045;DHT22;52192;52.002;5.956;2023-04-03T03:57:39;5.90;67.70
39045;DHT22;52192;52.002;5.956;2023-04-03T04:00:06;5.90;67.70
39045;DHT22;52192;52.002;5.956;2023-04-03T04:02:32;5.80;67.70
39045;DHT22;52192;52.002;5.956;2023-04-03T04:04:58;5.80;67.80
39045;DHT22;52192;52.002;5.956;2023-04-03T04:07:24;5.80;67.90
39045;DHT22;52192;52.002;5.956;2023-04-03T04:09:49;5.80;67.90
39045;DHT22;52192;52.002;5.956;2023-04-03T04:12:16;5.70;68.10
39045;DHT22;52192;52.002;5.956;2023-04-03T04:14:45;5.70;68.00
39045;DHT22;52192;52.002;5.956;2023-04-03T04:17:15;5.70;68.10
39045;DHT22;52192;52.002;5.956;2023-04-03T04:19:43;5.70;68.20
39045;DHT22;52192;52.002;5.956;2023-04-03T04:22:14;5.60;68.20
39045;DHT22;52192;52.002;5.956;2023-04-03T04:24:40;5.60;68.30
39045;DHT22;52192;52.002;5.956;2023-04-03T04:27:05;5.60;68.30
39045;DHT22;52192;52.002;5.956;2023-04-03T04:29:31;5.50;68.40
39045;DHT22;52192;52.002;5.956;2023-04-03T04:32:02;5.50;68.40
39045;DHT22;52192;52.002;5.956;2023-04-03T04:34:29;5.50;68.50
39045;DHT22;52192;52.002;5.956;2023-04-03T04:36:58;5.50;68.60
39045;DHT22;52192;52.002;5.956;2023-04-03T04:39:24;5.50;68.50
39045;DHT22;52192;52.002;5.956;2023-04-03T04:41:49;5.40;68.60
39045;DHT22;52192;52.002;5.956;2023-04-03T04:44:15;5.40;68.60
39045;DHT22;52192;52.002;5.956;2023-04-03T04:46:41;5.40;68.70
39045;DHT22;52192;52.002;5.956;2023-04-03T04:49:07;5.30;68.80
39045;DHT22;52192;52.002;5.956;2023-04-03T04:51:32;5.30;68.90
39045;DHT22;52192;52.002;5.956;2023-04-03T04:53:58;5.30;68.90
39045;DHT22;52192;52.002;5.956;2023-04-03T04:56:24;5.30;68.90
39045;DHT22;52192;52.002;5.956;2023-04-03T04:58:50;5.20;68.90
39045;DHT22;52192;52.002;5.956;2023-04-03T05:01:16;5.20;68.90
39045;DHT22;52192;52.002;5.956;2023-04-03T05:03:42;5.20;69.00
39045;DHT22;52192;52.002;5.956;2023-04-03T05:06:08;5.20;69.60
39045;DHT22;52192;52.002;5.956;2023-04-03T05:08:34;5.20;68.90
39045;DHT22;52192;52.002;5.956;2023-04-03T05:10:59;5.20;68.90
39045;DHT22;52192;52.002;5.956;2023-04-03T05:13:25;5.20;68.80
39045;DHT22;52192;52.002;5.956;2023-04-03T05:15:51;5.20;68.70
39045;DHT22;52192;52.002;5.956;2023-04-03T05:18:16;5.20;68.80
39045;DHT22;52192;52.002;5.956;2023-04-03T05:20:42;5.20;68.80
39045;DHT22;52192;52.002;5.956;2023-04-03T05:23:09;5.20;68.90
39045;DHT22;52192;52.002;5.956;2023-04-03T05:25:38;5.20;68.90
39045;DHT22;52192;52.002;5.956;2023-04-03T05:28:04;5.10;68.70
39045;DHT22;52192;52.002;5.956;2023-04-03T05:30:29;5.10;68.80
39045;DHT22;52192;52.002;5.956;2023-04-03T05:32:55;5.10;68.80
39045;DHT22;52192;52.002;5.956;2023-04-03T05:35:21;5.10;68.80
39045;DHT22;52192;52.002;5.956;2023-04-03T05:37:46;5.10;68.80
39045;DHT22;52192;52.002;5.956;2023-04-03T05:40:12;5.10;68.80
39045;DHT22;52192;52.002;5.956;2023-04-03T05:42:38;5.10;68.80
39045;DHT22;52192;52.002;5.956;2023-04-03T05:45:04;5.10;68.80
39045;DHT22;52192;52.002;5.956;2023-04-03T05:47:30;5.10;68.70
39045;DHT22;52192;52.002;5.956;2023-04-03T05:49:56;5.20;68.60
39045;DHT22;52192;52.002;5.956;2023-04-03T05:52:34;5.20;68.60
39045;DHT22;52192;52.002;5.956;2023-04-03T05:55:00;5.20;68.50
39045;DHT22;52192;52.002;5.956;2023-04-03T05:57:26;5.20;68.70
39045;DHT22;52192;52.002;5.956;2023-04-03T05:59:52;5.20;68.60
39045;DHT22;52192;52.002;5.956;2023-04-03T06:02:20;5.20;68.70
39045;DHT22;52192;52.002;5.956;2023-04-03T06:04:46;5.20;68.70
39045;DHT22;52192;52.002;5.956;2023-04-03T06:07:21;5.20;68.60
39045;DHT22;52192;52.002;5.956;2023-04-03T06:09:49;5.30;68.70
39045;DHT22;52192;52.002;5.956;2023-04-03T06:12:15;5.30;68.60
39045;DHT22;52192;52.002;5.956;2023-04-03T06:14:40;5.40;68.50
39045;DHT22;52192;52.002;5.956;2023-04-03T06:17:07;5.40;68.40
39045;DHT22;52192;52.002;5.956;2023-04-03T06:19:33;5.40;68.30
39045;DHT22;52192;52.002;5.956;2023-04-03T06:21:59;5.40;68.40
39045;DHT22;52192;52.002;5.956;2023-04-03T06:24:25;5.40;68.20
39045;DHT22;52192;52.002;5.956;2023-04-03T06:26:52;5.50;68.20
39045;DHT22;52192;52.002;5.956;2023-04-03T06:29:19;5.50;68.10
39045;DHT22;52192;52.002;5.956;2023-04-03T06:31:45;5.60;68.10
39045;DHT22;52192;52.002;5.956;2023-04-03T06:34:10;5.60;68.00
39045;DHT22;52192;52.002;5.956;2023-04-03T06:36:37;5.60;68.00
39045;DHT22;52192;52.002;5.956;2023-04-03T06:39:04;5.60;68.00
39045;DHT22;52192;52.002;5.956;2023-04-03T06:41:30;5.70;67.80
39045;DHT22;52192;52.002;5.956;2023-04-03T06:43:56;5.80;67.70
39045;DHT22;52192;52.002;5.956;2023-04-03T06:46:25;5.80;67.60
39045;DHT22;52192;52.002;5.956;2023-04-03T06:48:51;5.80;67.50
39045;DHT22;52192;52.002;5.956;2023-04-03T06:51:27;5.90;67.40
39045;DHT22;52192;52.002;5.956;2023-04-03T06:53:55;5.90;67.30
39045;DHT22;52192;52.002;5.956;2023-04-03T06:56:22;6.00;67.20
39045;DHT22;52192;52.002;5.956;2023-04-03T06:58:48;6.00;66.90
39045;DHT22;52192;52.002;5.956;2023-04-03T07:01:15;6.10;66.80
39045;DHT22;52192;52.002;5.956;2023-04-03T07:03:42;6.20;66.50
39045;DHT22;52192;52.002;5.956;2023-04-03T07:06:11;6.20;66.50
39045;DHT22;52192;52.002;5.956;2023-04-03T07:08:37;6.30;66.30
39045;DHT22;52192;52.002;5.956;2023-04-03T07:11:03;6.30;66.10
39045;DHT22;52192;52.002;5.956;2023-04-03T07:13:29;6.30;66.00
39045;DHT22;52192;52.002;5.956;2023-04-03T07:15:55;6.30;65.70
39045;DHT22;52192;52.002;5.956;2023-04-03T07:18:22;6.30;65.70
39045;DHT22;52192;52.002;5.956;2023-04-03T07:20:48;6.40;65.60
39045;DHT22;52192;52.002;5.956;2023-04-03T07:23:14;6.40;65.30
39045;DHT22;52192;52.002;5.956;2023-04-03T07:25:48;6.40;65.20
39045;DHT22;52192;52.002;5.956;2023-04-03T07:28:14;6.50;65.00
39045;DHT22;52192;52.002;5.956;2023-04-03T07:33:10;6.50;64.70
39045;DHT22;52192;52.002;5.956;2023-04-03T07:35:37;6.60;64.60
39045;DHT22;52192;52.002;5.956;2023-04-03T07:38:03;6.60;64.20
39045;DHT22;52192;52.002;5.956;2023-04-03T07:40:28;6.60;64.00
39045;DHT22;52192;52.002;5.956;2023-04-03T07:42:54;6.70;64.30
39045;DHT22;52192;52.002;5.956;2023-04-03T07:45:22;6.70;63.60
39045;DHT22;52192;52.002;5.956;2023-04-03T07:47:48;6.80;63.40
39045;DHT22;52192;52.002;5.956;2023-04-03T07:50:14;6.80;63.10
39045;DHT22;52192;52.002;5.956;2023-04-03T07:52:40;6.90;62.90
39045;DHT22;52192;52.002;5.956;2023-04-03T07:55:06;7.00;62.70
39045;DHT22;52192;52.002;5.956;2023-04-03T07:57:32;7.10;62.20
39045;DHT22;52192;52.002;5.956;2023-04-03T07:59:58;7.10;62.00
39045;DHT22;52192;52.002;5.956;2023-04-03T08:02:23;7.20;62.00
39045;DHT22;52192;52.002;5.956;2023-04-03T08:04:49;7.30;61.70
39045;DHT22;52192;52.002;5.956;2023-04-03T08:07:15;7.40;61.40
39045;DHT22;52192;52.002;5.956;2023-04-03T08:09:41;7.40;61.20
39045;DHT22;52192;52.002;5.956;2023-04-03T08:12:07;7.50;60.90
39045;DHT22;52192;52.002;5.956;2023-04-03T08:14:33;7.60;60.80
39045;DHT22;52192;52.002;5.956;2023-04-03T08:17:01;7.70;61.10
39045;DHT22;52192;52.002;5.956;2023-04-03T08:19:29;7.80;60.20
39045;DHT22;52192;52.002;5.956;2023-04-03T08:21:55;7.80;59.50
39045;DHT22;52192;52.002;5.956;2023-04-03T08:24:24;7.90;59.70
39045;DHT22;52192;52.002;5.956;2023-04-03T08:26:49;7.90;59.00
39045;DHT22;52192;52.002;5.956;2023-04-03T08:29:15;8.00;58.80
39045;DHT22;52192;52.002;5.956;2023-04-03T08:31:41;8.10;58.80
39045;DHT22;52192;52.002;5.956;2023-04-03T08:34:06;8.20;57.50
39045;DHT22;52192;52.002;5.956;2023-04-03T08:36:32;8.20;56.90
39045;DHT22;52192;52.002;5.956;2023-04-03T08:38:58;8.20;56.30
39045;DHT22;52192;52.002;5.956;2023-04-03T08:41:33;8.20;55.90
39045;DHT22;52192;52.002;5.956;2023-04-03T08:47:01;8.40;55.30
39045;DHT22;52192;52.002;5.956;2023-04-03T08:49:33;8.50;54.70
39045;DHT22;52192;52.002;5.956;2023-04-03T08:52:04;8.60;54.60
39045;DHT22;52192;52.002;5.956;2023-04-03T08:54:34;8.70;54.20
39045;DHT22;52192;52.002;5.956;2023-04-03T08:57:03;8.90;53.90
39045;DHT22;52192;52.002;5.956;2023-04-03T08:59:34;9.00;53.20
39045;DHT22;52192;52.002;5.956;2023-04-03T09:02:03;9.20;53.40
39045;DHT22;52192;52.002;5.956;2023-04-03T09:04:32;9.30;52.80
39045;DHT22;52192;52.002;5.956;2023-04-03T09:07:08;9.40;52.00
39045;DHT22;52192;52.002;5.956;2023-04-03T09:09:46;9.50;51.30
39045;DHT22;52192;52.002;5.956;2023-04-03T09:12:25;9.50;50.40
39045;DHT22;52192;52.002;5.956;2023-04-03T09:15:21;9.60;49.20
39045;DHT22;52192;52.002;5.956;2023-04-03T09:20:44;9.70;47.70
39045;DHT22;52192;52.002;5.956;2023-04-03T09:23:42;9.70;48.10
39045;DHT22;52192;52.002;5.956;2023-04-03T09:27:00;9.90;47.60
39045;DHT22;52192;52.002;5.956;2023-04-03T09:29:05;10.00;46.20
39045;DHT22;52192;52.002;5.956;2023-04-03T09:31:41;10.10;45.30
39045;DHT22;52192;52.002;5.956;2023-04-03T09:34:20;10.10;44.20
39045;DHT22;52192;52.002;5.956;2023-04-03T09:36:50;10.10;44.10
39045;DHT22;52192;52.002;5.956;2023-04-03T09:39:22;10.10;43.90
39045;DHT22;52192;52.002;5.956;2023-04-03T09:42:21;10.20;44.00
39045;DHT22;52192;52.002;5.956;2023-04-03T09:45:02;10.30;43.10
39045;DHT22;52192;52.002;5.956;2023-04-03T09:47:31;10.40;42.80
39045;DHT22;52192;52.002;5.956;2023-04-03T09:50:28;10.50;42.40
39045;DHT22;52192;52.002;5.956;2023-04-03T09:52:54;10.60;42.40
39045;DHT22;52192;52.002;5.956;2023-04-03T09:55:22;10.70;41.80
39045;DHT22;52192;52.002;5.956;2023-04-03T09:57:53;10.80;42.10
39045;DHT22;52192;52.002;5.956;2023-04-03T10:00:22;10.80;42.10
39045;DHT22;52192;52.002;5.956;2023-04-03T10:02:51;10.90;41.70
39045;DHT22;52192;52.002;5.956;2023-04-03T10:05:34;11.00;41.50
39045;DHT22;52192;52.002;5.956;2023-04-03T10:08:31;11.10;41.70
39045;DHT22;52192;52.002;5.956;2023-04-03T10:11:15;11.10;41.60
39045;DHT22;52192;52.002;5.956;2023-04-03T10:13:59;11.10;41.20
39045;DHT22;52192;52.002;5.956;2023-04-03T10:19:11;11.20;41.60
39045;DHT22;52192;52.002;5.956;2023-04-03T10:25:01;11.50;40.60
39045;DHT22;52192;52.002;5.956;2023-04-03T10:41:12;12.00;40.70
39045;DHT22;52192;52.002;5.956;2023-04-03T10:46:33;12.20;40.70
39045;DHT22;52192;52.002;5.956;2023-04-03T10:49:42;12.20;40.40
39045;DHT22;52192;52.002;5.956;2023-04-03T10:52:49;12.30;40.70
39045;DHT22;52192;52.002;5.956;2023-04-03T10:57:54;12.70;40.70
39045;DHT22;52192;52.002;5.956;2023-04-03T11:00:47;12.90;40.60
39045;DHT22;52192;52.002;5.956;2023-04-03T11:03:24;13.10;40.10
39045;DHT22;52192;52.002;5.956;2023-04-03T11:05:53;13.10;38.70
39045;DHT22;52192;52.002;5.956;2023-04-03T11:08:26;13.10;38.50
39045;DHT22;52192;52.002;5.956;2023-04-03T11:10:55;13.20;38.40
39045;DHT22;52192;52.002;5.956;2023-04-03T11:14:09;13.10;36.60
39045;DHT22;52192;52.002;5.956;2023-04-03T11:16:23;13.10;37.20
39045;DHT22;52192;52.002;5.956;2023-04-03T11:18:54;13.10;37.50
39045;DHT22;52192;52.002;5.956;2023-04-03T11:21:24;13.10;37.20
39045;DHT22;52192;52.002;5.956;2023-04-03T11:23:53;13.20;37.00
39045;DHT22;52192;52.002;5.956;2023-04-03T11:26:23;13.20;37.00
39045;DHT22;52192;52.002;5.956;2023-04-03T11:29:01;13.30;37.40
39045;DHT22;52192;52.002;5.956;2023-04-03T11:34:44;13.60;36.60
39045;DHT22;52192;52.002;5.956;2023-04-03T11:37:33;13.70;36.20
39045;DHT22;52192;52.002;5.956;2023-04-03T11:40:07;13.70;36.00
39045;DHT22;52192;52.002;5.956;2023-04-03T11:42:38;13.80;36.30
39045;DHT22;52192;52.002;5.956;2023-04-03T11:50:57;14.10;36.10
39045;DHT22;52192;52.002;5.956;2023-04-03T11:53:36;14.10;35.80
39045;DHT22;52192;52.002;5.956;2023-04-03T11:59:15;14.30;36.20
39045;DHT22;52192;52.002;5.956;2023-04-03T12:04:11;14.50;36.10
39045;DHT22;52192;52.002;5.956;2023-04-03T12:07:00;14.70;36.20
39045;DHT22;52192;52.002;5.956;2023-04-03T12:10:12;15.00;36.10
39045;DHT22;52192;52.002;5.956;2023-04-03T12:14:49;15.30;35.70
39045;DHT22;52192;52.002;5.956;2023-04-03T12:17:23;15.20;35.10
39045;DHT22;52192;52.002;5.956;2023-04-03T12:19:51;15.20;35.50
39045;DHT22;52192;52.002;5.956;2023-04-03T12:22:19;15.30;35.80
39045;DHT22;52192;52.002;5.956;2023-04-03T12:24:49;15.40;35.80
39045;DHT22;52192;52.002;5.956;2023-04-03T12:30:30;15.50;35.30
39045;DHT22;52192;52.002;5.956;2023-04-03T12:36:12;15.70;34.90
39045;DHT22;52192;52.002;5.956;2023-04-03T12:41:36;15.70;34.60
39045;DHT22;52192;52.002;5.956;2023-04-03T12:44:18;15.70;34.80
39045;DHT22;52192;52.002;5.956;2023-04-03T12:46:49;15.80;35.00
39045;DHT22;52192;52.002;5.956;2023-04-03T12:49:38;15.70;34.70
39045;DHT22;52192;52.002;5.956;2023-04-03T12:54:51;15.80;34.90
39045;DHT22;52192;52.002;5.956;2023-04-03T12:57:19;15.80;34.90
39045;DHT22;52192;52.002;5.956;2023-04-03T12:59:46;15.90;34.90
39045;DHT22;52192;52.002;5.956;2023-04-03T13:02:27;16.00;34.80
39045;DHT22;52192;52.002;5.956;2023-04-03T13:04:56;16.00;34.80
39045;DHT22;52192;52.002;5.956;2023-04-03T13:10:17;16.30;34.70
39045;DHT22;52192;52.002;5.956;2023-04-03T13:12:53;16.50;34.70
39045;DHT22;52192;52.002;5.956;2023-04-03T13:15:28;16.50;34.10
39045;DHT22;52192;52.002;5.956;2023-04-03T13:17:55;16.60;34.40
39045;DHT22;52192;52.002;5.956;2023-04-03T13:20:48;16.60;34.00
39045;DHT22;52192;52.002;5.956;2023-04-03T13:23:17;16.50;33.90
39045;DHT22;52192;52.002;5.956;2023-04-03T13:25:47;16.40;33.90
39045;DHT22;52192;52.002;5.956;2023-04-03T13:28:17;16.50;34.10
39045;DHT22;52192;52.002;5.956;2023-04-03T13:31:04;16.60;34.20
39045;DHT22;52192;52.002;5.956;2023-04-03T13:33:34;16.70;34.20
39045;DHT22;52192;52.002;5.956;2023-04-03T13:36:22;16.70;34.00
39045;DHT22;52192;52.002;5.956;2023-04-03T13:41:58;16.70;33.80
39045;DHT22;52192;52.002;5.956;2023-04-03T13:47:17;16.60;34.20
39045;DHT22;52192;52.002;5.956;2023-04-03T13:49:46;16.70;34.30
39045;DHT22;52192;52.002;5.956;2023-04-03T13:52:30;16.70;34.30
39045;DHT22;52192;52.002;5.956;2023-04-03T13:54:59;16.70;34.60
39045;DHT22;52192;52.002;5.956;2023-04-03T13:57:26;16.80;33.80
39045;DHT22;52192;52.002;5.956;2023-04-03T13:59:52;16.80;33.70
39045;DHT22;52192;52.002;5.956;2023-04-03T14:02:32;16.90;34.00
39045;DHT22;52192;52.002;5.956;2023-04-03T14:05:00;16.90;34.10
39045;DHT22;52192;52.002;5.956;2023-04-03T14:07:28;17.00;34.10
39045;DHT22;52192;52.002;5.956;2023-04-03T14:09:54;17.00;33.60
39045;DHT22;52192;52.002;5.956;2023-04-03T14:12:33;16.90;33.90
39045;DHT22;52192;52.002;5.956;2023-04-03T14:15:01;16.90;33.60
39045;DHT22;52192;52.002;5.956;2023-04-03T14:17:27;16.80;33.70
39045;DHT22;52192;52.002;5.956;2023-04-03T14:19:54;16.90;33.50
39045;DHT22;52192;52.002;5.956;2023-04-03T14:22:23;16.90;33.60
39045;DHT22;52192;52.002;5.956;2023-04-03T14:24:51;17.00;33.60
39045;DHT22;52192;52.002;5.956;2023-04-03T14:27:21;17.10;33.70
39045;DHT22;52192;52.002;5.956;2023-04-03T14:29:48;17.20;33.70
39045;DHT22;52192;52.002;5.956;2023-04-03T14:32:17;17.20;33.40
39045;DHT22;52192;52.002;5.956;2023-04-03T14:34:44;17.10;33.50
39045;DHT22;52192;52.002;5.956;2023-04-03T14:37:16;17.10;33.50
39045;DHT22;52192;52.002;5.956;2023-04-03T14:39:42;17.10;33.80
39045;DHT22;52192;52.002;5.956;2023-04-03T14:42:38;17.20;33.70
39045;DHT22;52192;52.002;5.956;2023-04-03T14:45:07;17.30;33.60
39045;DHT22;52192;52.002;5.956;2023-04-03T14:47:44;17.20;33.60
39045;DHT22;52192;52.002;5.956;2023-04-03T14:50:15;17.20;33.90
39045;DHT22;52192;52.002;5.956;2023-04-03T14:52:41;17.20;34.00
39045;DHT22;52192;52.002;5.956;2023-04-03T14:55:08;17.40;34.00
39045;DHT22;52192;52.002;5.956;2023-04-03T14:57:34;17.50;33.80
39045;DHT22;52192;52.002;5.956;2023-04-03T15:00:00;17.50;33.70
39045;DHT22;52192;52.002;5.956;2023-04-03T15:02:33;17.50;34.10
39045;DHT22;52192;52.002;5.956;2023-04-03T15:05:01;17.70;34.20
39045;DHT22;52192;52.002;5.956;2023-04-03T15:07:32;18.00;33.90
39045;DHT22;52192;52.002;5.956;2023-04-03T15:10:16;18.30;33.60
39045;DHT22;52192;52.002;5.956;2023-04-03T15:12:42;18.80;32.80
39045;DHT22;52192;52.002;5.956;2023-04-03T15:15:08;20.00;31.80
39045;DHT22;52192;52.002;5.956;2023-04-03T15:17:35;21.20;30.50
39045;DHT22;52192;52.002;5.956;2023-04-03T15:20:01;22.40;29.60
39045;DHT22;52192;52.002;5.956;2023-04-03T15:22:27;23.30;28.90
39045;DHT22;52192;52.002;5.956;2023-04-03T15:24:53;24.20;28.40
39045;DHT22;52192;52.002;5.956;2023-04-03T15:27:19;25.20;28.00
39045;DHT22;52192;52.002;5.956;2023-04-03T15:29:45;26.00;27.20
39045;DHT22;52192;52.002;5.956;2023-04-03T15:32:11;26.60;26.60
39045;DHT22;52192;52.002;5.956;2023-04-03T15:34:37;27.00;26.20
39045;DHT22;52192;52.002;5.956;2023-04-03T15:37:03;27.20;26.20
39045;DHT22;52192;52.002;5.956;2023-04-03T15:39:28;27.50;26.10
39045;DHT22;52192;52.002;5.956;2023-04-03T15:41:54;27.90;25.80
39045;DHT22;52192;52.002;5.956;2023-04-03T15:44:21;28.20;25.70
39045;DHT22;52192;52.002;5.956;2023-04-03T15:46:48;28.00;25.40
39045;DHT22;52192;52.002;5.956;2023-04-03T15:49:17;27.40;25.50
39045;DHT22;52192;52.002;5.956;2023-04-03T15:51:43;27.00;25.60
39045;DHT22;52192;52.002;5.956;2023-04-03T15:54:09;26.70;25.40
39045;DHT22;52192;52.002;5.956;2023-04-03T15:56:35;26.60;25.70
39045;DHT22;52192;52.002;5.956;2023-04-03T15:59:00;26.40;25.70
39045;DHT22;52192;52.002;5.956;2023-04-03T16:01:26;25.90;25.60
39045;DHT22;52192;52.002;5.956;2023-04-03T16:03:52;25.50;26.10
39045;DHT22;52192;52.002;5.956;2023-04-03T16:06:18;25.20;26.20
39045;DHT22;52192;52.002;5.956;2023-04-03T16:08:45;25.10;26.50
39045;DHT22;52192;52.002;5.956;2023-04-03T16:11:11;25.50;26.40
39045;DHT22;52192;52.002;5.956;2023-04-03T16:13:37;25.50;26.20
39045;DHT22;52192;52.002;5.956;2023-04-03T16:16:04;25.10;26.30
39045;DHT22;52192;52.002;5.956;2023-04-03T16:18:30;24.50;26.40
39045;DHT22;52192;52.002;5.956;2023-04-03T16:20:56;24.10;26.80
39045;DHT22;52192;52.002;5.956;2023-04-03T16:23:23;23.90;26.80
39045;DHT22;52192;52.002;5.956;2023-04-03T16:25:49;23.50;27.00
39045;DHT22;52192;52.002;5.956;2023-04-03T16:28:16;23.30;27.20
39045;DHT22;52192;52.002;5.956;2023-04-03T16:30:44;23.00;27.30
39045;DHT22;52192;52.002;5.956;2023-04-03T16:33:10;22.70;27.40
39045;DHT22;52192;52.002;5.956;2023-04-03T16:35:37;22.10;27.80
39045;DHT22;52192;52.002;5.956;2023-04-03T16:38:03;21.60;28.20
39045;DHT22;52192;52.002;5.956;2023-04-03T16:40:29;21.10;28.40
39045;DHT22;52192;52.002;5.956;2023-04-03T16:42:54;20.70;29.00
39045;DHT22;52192;52.002;5.956;2023-04-03T16:45:20;20.40;29.20
39045;DHT22;52192;52.002;5.956;2023-04-03T16:47:46;20.40;29.40
39045;DHT22;52192;52.002;5.956;2023-04-03T16:50:12;20.60;29.30
39045;DHT22;52192;52.002;5.956;2023-04-03T16:52:38;20.40;29.30
39045;DHT22;52192;52.002;5.956;2023-04-03T16:55:04;20.10;29.40
39045;DHT22;52192;52.002;5.956;2023-04-03T16:57:30;19.40;29.60
39045;DHT22;52192;52.002;5.956;2023-04-03T16:59:55;18.70;30.10
39045;DHT22;52192;52.002;5.956;2023-04-03T17:02:22;18.00;30.70
39045;DHT22;52192;52.002;5.956;2023-04-03T17:04:52;17.20;31.40
39045;DHT22;52192;52.002;5.956;2023-04-03T17:07:19;16.70;32.10
39045;DHT22;52192;52.002;5.956;2023-04-03T17:09:47;16.20;32.90
39045;DHT22;52192;52.002;5.956;2023-04-03T17:12:13;15.90;33.50
39045;DHT22;52192;52.002;5.956;2023-04-03T17:14:39;15.60;34.00